Time;durP1;ratioP1;P1;durP2;ratioP2;P2;SDS_P1;SDS_P2;PMS_P1;PMS_P2;Temp;Humidity;BMP_temperature;BMP_pressure;BME280_temperature;BME280_humidity;BME280_pressure;Samples;Min_cycle;Max_cycle;Signal;HPM_P1;HPM_P2
2023/08/01 00:00:51;;;;;;;12.40;3.25;;;;;;;-146.27;100.00;82344.00;5063286;28;20529;-71
2023/08/01 00:03:17;;;;;;;12.50;2.80;;;;;;;-146.27;100.00;82352.03;5062067;28;20123;-72
2023/08/01 00:05:44;;;;;;;11.35;2.95;;;;;;;-146.27;100.00;82380.16;5068625;28;20034;-72
2023/08/01 00:08:12;;;;;;;11.30;3.38;;;;;;;-146.27;100.00;82368.13;5063120;28;20483;-72
2023/08/01 00:10:38;;;;;;;11.35;3.40;;;;;;;-146.27;100.00;82285.75;5057653;28;20044;-71
2023/08/01 00:13:03;;;;;;;21.77;6.03;;;;;;;-146.27;100.00;82340.00;5064318;28;20507;-72
2023/08/01 00:15:29;;;;;;;14.57;3.35;;;;;;;-146.27;100.00;82344.00;5059370;28;20028;-72
2023/08/01 00:17:54;;;;;;;15.07;4.00;;;;;;;-146.27;100.00;82396.25;5051626;28;20036;-71
2023/08/01 00:20:19;;;;;;;13.60;3.50;;;;;;;-146.27;100.00;82368.13;5059428;28;20024;-71
2023/08/01 00:22:45;;;;;;;11.50;3.20;;;;;;;-146.27;100.00;82321.91;5055123;28;20037;-71
2023/08/01 00:25:10;;;;;;;7.13;3.17;;;;;;;-146.27;100.00;82299.81;5056579;28;20029;-71
2023/08/01 00:27:36;;;;;;;10.02;3.53;;;;;;;-146.27;100.00;82374.13;5051673;28;20547;-71
2023/08/01 00:30:01;;;;;;;14.27;3.50;;;;;;;-146.27;100.00;82344.00;5064371;28;20016;-71
2023/08/01 00:32:26;;;;;;;9.65;3.35;;;;;;;-146.27;100.00;82352.03;5066165;28;20055;-71
2023/08/01 00:34:52;;;;;;;8.48;2.90;;;;;;;-146.27;100.00;82358.06;5054981;28;20111;-71
2023/08/01 00:37:17;;;;;;;8.25;2.92;;;;;;;-146.27;100.00;82344.00;5067274;28;20060;-71
2023/08/01 00:39:42;;;;;;;13.50;3.83;;;;;;;-146.27;100.00;82348.03;5057447;28;20032;-71
2023/08/01 00:42:08;;;;;;;13.82;3.40;;;;;;;-146.27;100.00;82346.03;5051577;28;20086;-71
2023/08/01 00:44:33;;;;;;;17.45;4.30;;;;;;;-146.27;100.00;82337.97;5063597;28;20017;-71
2023/08/01 00:46:58;;;;;;;10.55;3.50;;;;;;;-146.27;100.00;82364.09;5069579;28;20173;-72
2023/08/01 00:49:24;;;;;;;12.68;3.40;;;;;;;-146.27;100.00;82340.00;5055883;28;20140;-70
2023/08/01 00:51:50;;;;;;;13.80;3.75;;;;;;;-146.27;100.00;82368.13;5058964;28;20032;-71
2023/08/01 00:54:16;;;;;;;7.70;3.10;;;;;;;-146.27;100.00;82323.91;5056222;28;20090;-72
2023/08/01 00:56:42;;;;;;;6.32;3.53;;;;;;;-146.27;100.00;82323.91;5064139;28;20024;-71
2023/08/01 00:59:07;;;;;;;11.15;3.20;;;;;;;-146.27;100.00;82333.97;5054666;28;20025;-72
2023/08/01 01:01:33;;;;;;;22.67;3.92;;;;;;;-146.27;100.00;82346.03;5061186;28;20035;-72
2023/08/01 01:03:59;;;;;;;14.23;3.75;;;;;;;-146.27;100.00;82340.00;5054804;28;20120;-72
2023/08/01 01:06:31;;;;;;;15.45;4.13;;;;;;;-146.27;100.00;82364.09;5052713;28;20063;-71
2023/08/01 01:08:56;;;;;;;14.18;3.78;;;;;;;-146.27;100.00;82313.88;5067091;28;20097;-72
2023/08/01 01:11:22;;;;;;;16.40;3.40;;;;;;;-146.27;100.00;82344.00;5050367;28;20048;-72
2023/08/01 01:13:47;;;;;;;15.90;3.97;;;;;;;-146.27;100.00;82317.91;5059707;28;20424;-72
2023/08/01 01:16:13;;;;;;;15.23;3.33;;;;;;;-146.27;100.00;82299.81;5049890;28;20036;-72
2023/08/01 01:18:38;;;;;;;10.60;3.30;;;;;;;-146.27;100.00;82301.81;5055914;28;20035;-71
2023/08/01 01:21:04;;;;;;;9.88;2.92;;;;;;;-146.27;100.00;82342.00;5054281;28;20476;-71
2023/08/01 01:23:31;;;;;;;13.10;3.90;;;;;;;-146.27;100.00;82331.97;5059120;28;20389;-71
2023/08/01 01:25:58;;;;;;;10.18;3.30;;;;;;;-146.27;100.00;82346.03;5056637;28;20480;-71
2023/08/01 01:28:25;;;;;;;9.48;3.40;;;;;;;-146.27;100.00;82364.09;5055442;28;20432;-71
2023/08/01 01:30:52;;;;;;;17.02;3.63;;;;;;;-146.27;100.00;82368.13;5049617;28;20021;-71
2023/08/01 01:33:18;;;;;;;16.77;3.47;;;;;;;-146.27;100.00;82392.22;5058937;28;20039;-71
2023/08/01 01:35:44;;;;;;;14.43;3.50;;;;;;;-146.27;100.00;82378.16;5062305;28;20107;-71
2023/08/01 01:38:09;;;;;;;10.88;3.35;;;;;;;-146.27;100.00;82362.09;5064940;28;20036;-72
2023/08/01 01:40:35;;;;;;;11.65;3.42;;;;;;;-146.27;100.00;82368.13;5059340;28;20036;-71
2023/08/01 01:43:01;;;;;;;10.60;3.47;;;;;;;-146.27;100.00;82352.03;5058612;28;20085;-71
2023/08/01 01:45:27;;;;;;;11.75;3.15;;;;;;;-146.27;100.00;82331.97;5056376;28;20037;-70
2023/08/01 01:47:52;;;;;;;16.00;3.45;;;;;;;-146.27;100.00;82307.84;5056065;28;20104;-71
2023/08/01 01:50:18;;;;;;;10.32;2.92;;;;;;;-146.27;100.00;82344.00;5067916;28;20032;-70
2023/08/01 01:52:44;;;;;;;14.90;2.90;;;;;;;-146.27;100.00;82348.03;5058065;28;20052;-70
2023/08/01 01:55:10;;;;;;;8.27;2.83;;;;;;;-146.27;100.00;82325.94;5061726;28;20040;-71
2023/08/01 01:57:36;;;;;;;18.83;3.67;;;;;;;-146.27;100.00;82331.97;5064168;28;20033;-71
2023/08/01 02:00:03;;;;;;;14.93;3.42;;;;;;;-146.27;100.00;82331.97;5056852;28;20029;-70
2023/08/01 02:02:29;;;;;;;10.70;3.05;;;;;;;-146.27;100.00;82285.75;5052021;28;20035;-70
2023/08/01 02:04:54;;;;;;;16.13;3.65;;;;;;;-146.27;100.00;82299.81;5058101;28;20021;-70
2023/08/01 02:07:20;;;;;;;11.18;3.72;;;;;;;-146.27;100.00;82269.69;5056807;28;20036;-70
2023/08/01 02:09:46;;;;;;;14.50;3.65;;;;;;;-146.27;100.00;82291.78;5048675;28;20033;-70
2023/08/01 02:12:13;;;;;;;13.38;4.18;;;;;;;-146.27;100.00;82295.81;5052495;28;20048;-70
2023/08/01 02:14:39;;;;;;;8.32;3.38;;;;;;;-146.27;100.00;82241.56;5064183;28;20035;-71
2023/08/01 02:17:05;;;;;;;15.73;3.20;;;;;;;-146.27;100.00;82287.75;5059825;28;20036;-70
2023/08/01 02:19:30;;;;;;;13.48;3.25;;;;;;;-146.27;100.00;82243.56;5054345;28;20412;-71
2023/08/01 02:21:55;;;;;;;6.75;3.03;;;;;;;-146.27;100.00;82235.53;5048971;28;20036;-72
2023/08/01 02:24:21;;;;;;;18.38;4.15;;;;;;;-146.27;100.00;82299.81;5054414;28;20029;-71
2023/08/01 02:26:46;;;;;;;14.25;3.17;;;;;;;-146.27;100.00;82257.63;5062197;28;20107;-71
2023/08/01 02:29:12;;;;;;;15.50;3.55;;;;;;;-146.27;100.00;82235.53;5062213;28;20021;-70
2023/08/01 02:31:37;;;;;;;16.10;3.80;;;;;;;-146.27;100.00;82259.66;5057368;28;20056;-71
2023/08/01 02:34:02;;;;;;;15.65;4.07;;;;;;;-146.27;100.00;82384.19;5064309;28;20029;-71
2023/08/01 02:36:28;;;;;;;8.93;3.35;;;;;;;-146.27;100.00;82372.13;5061934;28;20035;-70
2023/08/01 02:38:53;;;;;;;11.40;3.65;;;;;;;-146.27;100.00;82376.16;5061076;28;20023;-71
2023/08/01 02:41:18;;;;;;;15.05;4.10;;;;;;;-146.27;100.00;82392.22;5055964;28;20461;-70
2023/08/01 02:43:44;;;;;;;10.75;3.90;;;;;;;-146.27;100.00;82392.22;5060289;28;20508;-70
2023/08/01 02:46:10;;;;;;;14.38;4.05;;;;;;;-146.27;100.00;82386.19;5051931;28;20044;-70
2023/08/01 02:48:35;;;;;;;15.88;4.10;;;;;;;-146.27;100.00;82394.22;5061485;28;20444;-70
2023/08/01 02:51:02;;;;;;;15.40;4.20;;;;;;;-146.27;100.00;82396.25;5064691;28;20028;-71
2023/08/01 02:53:27;;;;;;;18.20;4.95;;;;;;;-146.27;100.00;82396.25;5059825;28;20563;-70
2023/08/01 02:55:52;;;;;;;16.73;5.47;;;;;;;-146.27;100.00;82412.31;5056391;28;20115;-69
2023/08/01 02:58:18;;;;;;;16.30;5.47;;;;;;;-146.27;100.00;82396.25;5062920;28;20059;-70
2023/08/01 03:00:43;;;;;;;15.05;5.15;;;;;;;-146.27;100.00;82404.28;5063270;28;20388;-71
2023/08/01 03:03:09;;;;;;;19.67;5.10;;;;;;;-146.27;100.00;82408.28;5063893;28;20062;-70
2023/08/01 03:05:37;;;;;;;16.65;5.82;;;;;;;-146.27;100.00;82412.31;5061325;28;20119;-71
2023/08/01 03:08:04;;;;;;;21.33;5.25;;;;;;;-146.27;100.00;82420.34;5053601;28;20025;-71
2023/08/01 03:10:29;;;;;;;18.77;5.68;;;;;;;-146.27;100.00;82364.09;5055492;28;20075;-70
2023/08/01 03:12:54;;;;;;;16.05;4.85;;;;;;;-146.27;100.00;82358.06;5063880;28;20024;-70
2023/08/01 03:15:20;;;;;;;18.05;4.38;;;;;;;-146.27;100.00;82428.38;5061959;28;20103;-70
2023/08/01 03:17:45;;;;;;;17.88;4.80;;;;;;;-146.27;100.00;82372.13;5058966;28;20064;-71
2023/08/01 03:20:11;;;;;;;28.58;4.85;;;;;;;-146.27;100.00;82384.19;5067210;28;20032;-70
2023/08/01 03:22:40;;;;;;;19.23;4.97;;;;;;;-146.27;100.00;82368.13;5054265;28;20028;-70
2023/08/01 03:25:09;;;;;;;19.08;4.60;;;;;;;-146.27;100.00;82378.16;5059063;28;21828;-71
2023/08/01 03:27:35;;;;;;;22.05;4.75;;;;;;;-146.27;100.00;82384.19;5049832;28;20031;-70
2023/08/01 03:30:02;;;;;;;11.05;4.15;;;;;;;-146.27;100.00;82360.09;5059182;28;20029;-71
2023/08/01 03:32:27;;;;;;;27.10;5.57;;;;;;;-146.27;100.00;82400.25;5059623;28;20021;-70
2023/08/01 03:34:52;;;;;;;21.40;5.75;;;;;;;-146.27;100.00;82376.16;5065085;28;20553;-71
2023/08/01 03:37:18;;;;;;;16.02;5.10;;;;;;;-146.27;100.00;82384.19;5055717;28;20404;-70
2023/08/01 03:39:43;;;;;;;21.88;5.25;;;;;;;-146.27;100.00;82380.16;5054080;28;20112;-70
2023/08/01 03:42:09;;;;;;;15.30;5.85;;;;;;;-146.27;100.00;82340.00;5061425;28;20403;-71
2023/08/01 03:44:34;;;;;;;14.38;4.03;;;;;;;-146.27;100.00;82295.81;5053514;28;20525;-71
2023/08/01 03:47:00;;;;;;;16.13;4.20;;;;;;;-146.27;100.00;82372.13;5050462;28;20117;-71
2023/08/01 03:49:25;;;;;;;15.60;3.45;;;;;;;-146.27;100.00;82350.03;5063232;28;20123;-71
2023/08/01 03:51:51;;;;;;;13.10;3.88;;;;;;;-146.27;100.00;82329.94;5059438;28;20044;-72
2023/08/01 03:54:16;;;;;;;13.65;3.70;;;;;;;-146.27;100.00;82315.88;5056248;28;20108;-70
2023/08/01 03:56:43;;;;;;;10.20;4.95;;;;;;;-146.27;100.00;82340.00;5059544;28;20045;-71
2023/08/01 03:59:10;;;;;;;13.13;3.50;;;;;;;-146.27;100.00;82340.00;5057784;28;20025;-71
2023/08/01 04:01:35;;;;;;;23.55;4.07;;;;;;;-146.27;100.00;82348.03;5051645;28;20037;-70
2023/08/01 04:04:00;;;;;;;13.60;3.95;;;;;;;-146.27;100.00;82382.19;5052339;28;20028;-72
2023/08/01 04:06:26;;;;;;;17.10;4.53;;;;;;;-146.27;100.00;82340.00;5051388;28;20841;-72
2023/08/01 04:08:52;;;;;;;15.07;3.75;;;;;;;-146.27;100.00;82325.94;5060182;28;20025;-71
2023/08/01 04:11:17;;;;;;;14.68;3.78;;;;;;;-146.27;100.00;82323.91;5052933;28;20075;-71
2023/08/01 04:13:43;;;;;;;19.48;4.43;;;;;;;-146.27;100.00;82364.09;5053610;28;20156;-72
2023/08/01 04:16:08;;;;;;;19.13;4.10;;;;;;;-146.27;100.00;82372.13;5056585;28;20060;-71
2023/08/01 04:18:34;;;;;;;14.50;4.30;;;;;;;-146.27;100.00;82360.09;5064113;28;20457;-72
2023/08/01 04:20:59;;;;;;;13.25;3.45;;;;;;;-146.27;100.00;82331.97;5055489;28;20029;-71
2023/08/01 04:23:24;;;;;;;17.45;3.60;;;;;;;-146.27;100.00;82376.16;5051856;28;20107;-71
2023/08/01 04:25:50;;;;;;;14.88;4.28;;;;;;;-146.27;100.00;82331.97;5058352;28;20039;-72
2023/08/01 04:28:15;;;;;;;14.80;2.83;;;;;;;-146.27;100.00;82380.16;5052821;28;20115;-71
2023/08/01 04:30:40;;;;;;;15.15;3.42;;;;;;;-146.27;100.00;82372.13;5061613;28;20024;-72
2023/08/01 04:33:06;;;;;;;12.63;3.72;;;;;;;-146.27;100.00;82406.28;5055527;28;20033;-72
2023/08/01 04:35:31;;;;;;;9.85;3.45;;;;;;;-146.27;100.00;82394.22;5065203;28;20032;-70
2023/08/01 04:37:57;;;;;;;11.70;3.28;;;;;;;-146.27;100.00;82384.19;5053059;28;20024;-71
2023/08/01 04:40:22;;;;;;;9.13;2.63;;;;;;;-146.27;100.00;82412.31;5053855;28;20469;-71
2023/08/01 04:42:47;;;;;;;8.90;2.80;;;;;;;-146.27;100.00;82342.00;5053593;28;20021;-72
2023/08/01 04:45:14;;;;;;;12.65;2.80;;;;;;;-146.27;100.00;82340.00;5052310;28;20025;-72
2023/08/01 04:47:39;;;;;;;18.60;2.72;;;;;;;-146.27;100.00;82356.06;5064306;28;20039;-71
2023/08/01 04:50:05;;;;;;;7.45;2.35;;;;;;;-146.27;100.00;82344.00;5055435;28;20384;-72
2023/08/01 04:52:31;;;;;;;6.82;2.90;;;;;;;-146.27;100.00;82335.97;5056675;28;20036;-71
2023/08/01 04:54:56;;;;;;;13.00;3.25;;;;;;;-146.27;100.00;82404.28;5060223;28;20454;-71
2023/08/01 04:57:21;;;;;;;12.40;2.80;;;;;;;-146.27;100.00;82370.13;5054393;28;20032;-72
2023/08/01 04:59:47;;;;;;;16.63;2.80;;;;;;;-146.27;100.00;82364.09;5059846;28;20369;-71
2023/08/01 05:02:12;;;;;;;8.93;2.70;;;;;;;-146.27;100.00;82388.22;5060822;28;20024;-72
2023/08/01 05:04:38;;;;;;;13.23;3.05;;;;;;;-146.27;100.00;82384.19;5071002;28;20026;-72
2023/08/01 05:07:05;;;;;;;10.25;2.67;;;;;;;-146.27;99.91;82335.97;5053064;28;20417;-72
2023/08/01 05:09:32;;;;;;;11.43;2.55;;;;;;;-146.27;99.43;82331.97;5051080;28;20451;-71
2023/08/01 05:11:57;;;;;;;7.35;3.03;;;;;;;-146.27;98.92;82329.94;5052829;28;20048;-72
2023/08/01 05:14:23;;;;;;;9.88;2.40;;;;;;;-146.27;99.21;82354.06;5062104;28;21769;-71
2023/08/01 05:16:48;;;;;;;9.70;2.60;;;;;;;-146.27;99.32;82297.81;5051169;28;20064;-71
2023/08/01 05:19:13;;;;;;;8.35;2.80;;;;;;;-146.27;99.14;82307.84;5065035;28;20025;-72
2023/08/01 05:21:39;;;;;;;12.73;3.05;;;;;;;-146.27;98.51;82358.06;5060778;28;20513;-72
2023/08/01 05:24:04;;;;;;;11.52;2.47;;;;;;;-146.27;98.33;82352.03;5070002;28;20374;-71
2023/08/01 05:26:30;;;;;;;9.02;2.90;;;;;;;-146.27;97.86;82329.94;5062473;28;20800;-72
2023/08/01 05:28:55;;;;;;;8.65;2.50;;;;;;;-146.27;97.91;82327.94;5058656;28;20037;-72
2023/08/01 05:31:20;;;;;;;14.23;3.05;;;;;;;-146.27;97.21;82305.84;5050441;28;20086;-72
2023/08/01 05:33:45;;;;;;;11.10;2.67;;;;;;;-146.27;97.03;82309.88;5053745;28;20523;-72
2023/08/01 05:36:11;;;;;;;13.57;2.95;;;;;;;-146.27;97.40;82360.09;5060348;28;20025;-72
2023/08/01 05:38:36;;;;;;;6.50;2.28;;;;;;;-146.27;97.16;82323.91;5058586;28;20035;-73
2023/08/01 05:41:02;;;;;;;12.93;2.97;;;;;;;-146.27;97.31;82255.63;5064956;28;20025;-72
2023/08/01 05:43:27;;;;;;;11.00;2.80;;;;;;;-146.27;96.80;82295.81;5057029;28;20395;-72
2023/08/01 05:45:53;;;;;;;6.88;2.33;;;;;;;-146.27;96.42;82259.66;5069635;28;20082;-72
2023/08/01 05:48:18;;;;;;;11.75;3.67;;;;;;;-146.27;96.20;82267.69;5063101;28;20025;-72
2023/08/01 05:50:43;;;;;;;12.80;3.28;;;;;;;-146.27;96.09;82251.59;5065401;28;20031;-72
2023/08/01 05:53:09;;;;;;;12.07;2.60;;;;;;;-146.27;95.54;82275.72;5059547;28;20090;-72
2023/08/01 05:55:34;;;;;;;15.55;2.63;;;;;;;-146.27;95.55;82223.47;5052252;28;20051;-71
2023/08/01 05:57:59;;;;;;;10.57;2.97;;;;;;;-146.27;95.33;82243.56;5049316;28;20039;-70
2023/08/01 06:00:25;;;;;;;7.65;2.45;;;;;;;-146.27;95.46;82187.31;5057392;28;20032;-70
2023/08/01 06:02:50;;;;;;;10.40;2.63;;;;;;;-146.27;95.67;82185.31;5053235;28;20032;-72
2023/08/01 06:05:16;;;;;;;8.60;2.60;;;;;;;-146.27;95.37;82227.50;5054221;28;20021;-71
2023/08/01 06:07:41;;;;;;;11.82;2.40;;;;;;;-146.27;95.45;82243.56;5049138;28;20464;-71
2023/08/01 06:10:07;;;;;;;9.32;2.28;;;;;;;-146.27;95.20;82237.53;5049485;28;20391;-70
2023/08/01 06:12:32;;;;;;;15.00;2.80;;;;;;;-146.27;95.31;82187.31;5067900;28;20053;-71
2023/08/01 06:14:58;;;;;;;10.13;2.97;;;;;;;-146.27;94.93;82157.19;5069500;28;20070;-71
2023/08/01 06:17:23;;;;;;;13.48;3.40;;;;;;;-146.27;94.74;82139.13;5061088;28;20031;-71
2023/08/01 06:19:49;;;;;;;15.18;3.70;;;;;;;-146.27;94.28;82139.13;5053872;28;20044;-71
2023/08/01 06:22:15;;;;;;;10.60;2.67;;;;;;;-146.27;94.47;82169.25;5055907;28;20036;-72
2023/08/01 06:24:40;;;;;;;11.68;3.15;;;;;;;-146.27;94.47;82175.28;5059062;28;20070;-71
2023/08/01 06:27:06;;;;;;;18.55;3.15;;;;;;;-146.27;95.07;82155.19;5062182;28;20152;-71
2023/08/01 06:29:31;;;;;;;9.40;2.75;;;;;;;-146.27;94.64;82151.16;5058491;28;20417;-70
2023/08/01 06:31:57;;;;;;;14.88;3.50;;;;;;;-146.27;96.91;82131.09;5062971;28;20028;-70
2023/08/01 06:34:22;;;;;;;9.02;2.45;;;;;;;-146.27;98.46;82239.56;5054609;28;20469;-71
2023/08/01 06:36:48;;;;;;;12.38;3.10;;;;;;;-146.27;100.00;82283.75;5060924;28;20485;-69
2023/08/01 06:39:13;;;;;;;7.85;2.95;;;;;;;-146.27;100.00;82348.03;5053280;28;20040;-70
2023/08/01 06:41:39;;;;;;;8.57;3.13;;;;;;;-146.27;100.00;82356.06;5053221;28;20025;-70
2023/08/01 06:44:04;;;;;;;17.33;3.50;;;;;;;-146.27;100.00;82400.25;5053341;28;20032;-71
2023/08/01 06:46:29;;;;;;;18.55;3.90;;;;;;;-146.27;100.00;82364.09;5053177;28;20053;-69
2023/08/01 06:48:55;;;;;;;17.85;3.95;;;;;;;-146.27;100.00;82454.50;5054379;28;20025;-69
2023/08/01 06:51:20;;;;;;;14.10;4.18;;;;;;;-146.27;100.00;82420.34;5072702;28;20513;-69
2023/08/01 06:53:46;;;;;;;12.18;3.10;;;;;;;-146.27;100.00;82410.31;5062406;28;20095;-70
2023/08/01 06:56:11;;;;;;;21.00;4.00;;;;;;;-146.27;100.00;82408.28;5072992;28;20058;-69
2023/08/01 06:58:37;;;;;;;11.30;3.50;;;;;;;-146.27;100.00;82420.34;5071844;28;20392;-71
2023/08/01 07:01:02;;;;;;;10.50;3.67;;;;;;;-146.27;100.00;82420.34;5072856;28;20052;-70
2023/08/01 07:03:28;;;;;;;10.75;2.88;;;;;;;-146.27;100.00;82428.38;5059599;28;20064;-70
2023/08/01 07:05:53;;;;;;;12.68;3.92;;;;;;;-146.27;100.00;82400.25;5052657;28;20032;-69
2023/08/01 07:08:21;;;;;;;8.73;2.90;;;;;;;-146.27;100.00;82414.31;5052450;28;20075;-70
2023/08/01 07:10:47;;;;;;;6.70;2.17;;;;;;;-146.27;100.00;82348.03;5052920;28;20053;-69
2023/08/01 07:13:12;;;;;;;10.30;2.38;;;;;;;-146.27;100.00;82356.06;5052268;28;20059;-70
2023/08/01 07:15:37;;;;;;;8.85;2.05;;;;;;;-146.27;100.00;82299.81;5052197;28;20078;-71
2023/08/01 07:18:03;;;;;;;8.23;2.45;;;;;;;-146.27;100.00;82335.97;5052600;28;20028;-71
2023/08/01 07:20:28;;;;;;;6.20;2.00;;;;;;;-146.27;100.00;82303.84;5059706;28;20074;-72
2023/08/01 07:22:54;;;;;;;13.63;2.70;;;;;;;-146.27;100.00;82283.75;5065115;28;20060;-72
2023/08/01 07:25:22;;;;;;;6.18;2.13;;;;;;;-146.27;99.11;82291.78;5050395;28;20114;-70
2023/08/01 07:27:48;;;;;;;9.00;2.58;;;;;;;-146.27;98.48;82251.59;5051972;28;20423;-71
2023/08/01 07:30:13;;;;;;;9.90;2.10;;;;;;;-146.27;98.12;82255.63;5052614;28;20401;-70
2023/08/01 07:32:39;;;;;;;6.90;2.42;;;;;;;-146.27;97.08;82255.63;5056754;28;20468;-71
2023/08/01 07:35:06;;;;;;;10.93;2.50;;;;;;;-146.27;96.81;82247.59;5059586;28;20073;-71
2023/08/01 07:37:33;;;;;;;14.90;2.42;;;;;;;-146.27;95.86;82255.63;5051111;28;20104;-71
2023/08/01 07:39:58;;;;;;;6.60;2.20;;;;;;;-146.27;96.11;82201.38;5052347;28;20063;-70
2023/08/01 07:42:24;;;;;;;10.93;2.30;;;;;;;-146.27;94.59;82169.25;5053716;28;20029;-71
2023/08/01 07:44:49;;;;;;;9.18;2.40;;;;;;;-146.27;94.12;82137.13;5072499;28;20063;-71
2023/08/01 07:47:15;;;;;;;11.13;2.30;;;;;;;-146.27;93.10;82143.13;5072336;28;20020;-72
2023/08/01 07:49:40;;;;;;;7.78;2.25;;;;;;;-146.27;92.31;82129.06;5065874;28;20025;-70
2023/08/01 07:52:06;;;;;;;6.63;2.40;;;;;;;-146.27;93.06;82074.84;5052259;28;20040;-70
2023/08/01 07:54:32;;;;;;;12.68;2.05;;;;;;;-146.27;91.04;82102.97;5050636;28;20033;-71
2023/08/01 07:56:57;;;;;;;9.60;2.88;;;;;;;-146.27;90.70;82062.78;5050510;28;20029;-71
2023/08/01 07:59:23;;;;;;;5.97;1.65;;;;;;;-146.27;90.40;82115.00;5051966;28;20037;-71
2023/08/01 08:01:49;;;;;;;9.20;2.25;;;;;;;-146.27;90.73;82082.88;5052111;28;20025;-70
2023/08/01 08:04:14;;;;;;;6.80;2.22;;;;;;;-146.27;90.75;82137.13;5052274;28;20354;-71
2023/08/01 08:06:40;;;;;;;8.80;2.28;;;;;;;-146.27;90.98;82145.16;5065979;28;20044;-69
2023/08/01 08:09:06;;;;;;;10.30;2.45;;;;;;;-146.27;91.12;82104.97;5070162;28;20123;-70
2023/08/01 08:11:32;;;;;;;12.43;2.83;;;;;;;-146.27;91.59;82139.13;5052293;28;20144;-70
2023/08/01 08:13:58;;;;;;;13.15;2.95;;;;;;;-146.27;95.13;82183.31;5058054;28;20070;-71
2023/08/01 08:16:23;;;;;;;9.02;2.50;;;;;;;-146.27;96.19;82217.47;5057499;28;20028;-69
2023/08/01 08:18:52;;;;;;;12.95;3.03;;;;;;;-146.27;98.28;82263.66;5051507;28;20021;-73
2023/08/01 08:21:39;;;;;;;11.20;2.30;;;;;;;-146.27;99.04;82291.78;5062197;28;20074;-72
2023/08/01 08:24:06;;;;;;;7.70;2.53;;;;;;;-146.27;99.57;82251.59;5052956;28;20078;-71
2023/08/01 08:26:37;;;;;;;11.55;2.58;;;;;;;-146.27;99.00;82279.72;5062524;28;20047;-71
2023/08/01 08:29:04;;;;;;;14.63;2.47;;;;;;;-146.27;97.67;82231.53;5056026;28;20039;-73
2023/08/01 08:31:42;;;;;;;16.50;3.90;;;;;;;-146.27;95.88;82221.47;5050912;28;20480;-71
2023/08/01 08:34:08;;;;;;;12.15;2.67;;;;;;;-146.27;94.84;82235.53;5050015;28;20094;-72
2023/08/01 08:36:33;;;;;;;7.95;2.25;;;;;;;-146.27;94.95;82225.50;5050400;28;20037;-71
2023/08/01 08:39:03;;;;;;;5.85;2.67;;;;;;;-146.27;94.27;82239.56;5051351;28;20051;-72
2023/08/01 08:41:33;;;;;;;8.85;2.75;;;;;;;-146.27;93.66;82215.44;5055157;28;20111;-71
2023/08/01 08:43:59;;;;;;;10.48;2.83;;;;;;;-146.27;93.52;82207.41;5059137;28;20025;-72
2023/08/01 08:46:32;;;;;;;13.93;2.42;;;;;;;-146.27;93.41;82191.34;5058377;28;20028;-73
2023/08/01 08:49:00;;;;;;;12.48;3.20;;;;;;;-146.27;93.49;82062.78;5064917;28;20016;-72
2023/08/01 08:51:29;;;;;;;14.27;2.70;;;;;;;-146.27;92.36;81990.47;5062141;28;20028;-72
2023/08/01 08:53:56;;;;;;;10.38;2.55;;;;;;;-146.27;91.98;81990.47;5051597;28;20114;-73
2023/08/01 08:56:22;;;;;;;13.75;4.20;;;;;;;-146.27;90.50;82040.69;5065302;28;20476;-73
2023/08/01 08:58:48;;;;;;;7.40;2.30;;;;;;;-146.27;90.46;82018.59;5057363;28;20025;-73
2023/08/01 09:01:20;;;;;;;10.38;2.40;;;;;;;-146.27;90.55;81936.25;5061585;28;20039;-71
2023/08/01 09:03:46;;;;;;;8.43;2.87;;;;;;;-146.27;90.61;82030.66;5050660;28;20099;-72
2023/08/01 09:06:16;;;;;;;14.60;2.30;;;;;;;-146.27;90.69;82034.66;5059510;28;20603;-73
2023/08/01 09:08:55;;;;;;;6.63;2.20;;;;;;;-146.27;88.45;82010.56;5050699;28;20473;-72
2023/08/01 09:11:39;;;;;;;12.73;2.60;;;;;;;-146.27;87.77;81966.38;5048983;28;20103;-72
2023/08/01 09:14:05;;;;;;;3.53;1.60;;;;;;;-146.27;86.47;81942.28;5059864;28;20043;-72
2023/08/01 09:16:33;;;;;;;14.40;2.60;;;;;;;-146.27;86.44;81918.16;5059448;28;20048;-73
2023/08/01 09:18:59;;;;;;;12.55;3.03;;;;;;;-146.27;85.94;81849.88;5052791;28;20037;-73
2023/08/01 09:21:25;;;;;;;12.52;2.40;;;;;;;-146.27;85.76;81841.84;5061983;28;20094;-72
2023/08/01 09:23:54;;;;;;;8.75;2.33;;;;;;;-146.27;85.87;81805.69;5071069;28;20043;-72
2023/08/01 09:26:20;;;;;;;8.32;2.08;;;;;;;-146.27;85.13;81757.50;5057665;28;20025;-72
2023/08/01 09:29:01;;;;;;;5.72;1.83;;;;;;;-146.27;82.73;81749.47;5061220;28;20247;-72
2023/08/01 09:31:29;;;;;;;7.80;1.98;;;;;;;-146.27;81.57;81636.97;5052512;28;20652;-73
2023/08/01 09:33:54;;;;;;;8.50;1.98;;;;;;;-146.27;80.78;81757.50;5057741;28;20554;-72
2023/08/01 09:36:24;;;;;;;11.48;2.05;;;;;;;-146.27;82.33;81805.69;5063246;28;20029;-72
2023/08/01 09:38:50;;;;;;;9.05;2.03;;;;;;;-146.27;81.84;81817.75;5060866;28;20032;-71
2023/08/01 09:41:19;;;;;;;11.45;2.20;;;;;;;-146.27;82.74;81739.41;5060752;28;20032;-72
2023/08/01 09:43:46;;;;;;;6.30;1.95;;;;;;;-146.27;82.49;81773.56;5061661;28;20028;-72
2023/08/01 09:46:13;;;;;;;10.48;2.08;;;;;;;-146.27;82.40;81769.53;5068933;28;20035;-71
2023/08/01 09:48:38;;;;;;;10.98;2.00;;;;;;;-146.27;81.71;81821.75;5051658;28;20036;-72
2023/08/01 09:51:12;;;;;;;10.70;2.10;;;;;;;-146.27;81.51;81906.13;5064474;28;20051;-70
2023/08/01 09:53:48;;;;;;;7.20;2.47;;;;;;;-146.27;81.04;81894.06;5070805;28;20033;-71
2023/08/01 09:56:18;;;;;;;7.15;1.63;;;;;;;-146.27;80.48;81817.75;5062164;28;20479;-71
2023/08/01 09:58:45;;;;;;;4.80;1.98;;;;;;;-146.27;80.24;81845.88;5072662;28;20025;-71
2023/08/01 10:01:12;;;;;;;7.68;2.40;;;;;;;-146.27;81.23;81737.41;5066832;28;20032;-72
2023/08/01 10:03:40;;;;;;;6.45;1.80;;;;;;;-146.27;81.54;81743.44;5055986;28;20028;-73
2023/08/01 10:06:06;;;;;;;11.85;2.53;;;;;;;-146.27;80.78;81725.34;5056310;28;20033;-73
2023/08/01 10:08:33;;;;;;;12.45;2.25;;;;;;;-146.27;79.58;81653.06;5056337;28;20559;-72
2023/08/01 10:10:58;;;;;;;9.75;2.42;;;;;;;-146.27;79.09;81604.84;5063292;28;20079;-71
2023/08/01 10:13:27;;;;;;;10.90;2.33;;;;;;;-146.27;79.11;81556.66;5076715;28;20076;-73
2023/08/01 10:15:53;;;;;;;8.23;1.95;;;;;;;-146.27;78.24;81566.69;5086326;28;20035;-72
2023/08/01 10:18:19;;;;;;;8.77;1.92;;;;;;;-146.27;77.65;81556.66;5059832;28;20112;-73
2023/08/01 10:20:45;;;;;;;5.85;1.83;;;;;;;-146.27;77.56;81536.56;5053748;28;20075;-73
2023/08/01 10:23:12;;;;;;;7.72;1.98;;;;;;;-146.27;77.44;81526.53;5073656;28;20369;-72
2023/08/01 10:25:38;;;;;;;4.40;1.73;;;;;;;-146.27;77.43;81534.56;5062605;28;20017;-72
2023/08/01 10:28:05;;;;;;;10.93;2.15;;;;;;;-146.27;76.38;81508.44;5051926;28;20035;-73
2023/08/01 10:30:31;;;;;;;4.95;1.75;;;;;;;-146.27;75.73;81671.13;5060187;28;20023;-72
2023/08/01 10:32:59;;;;;;;9.52;2.10;;;;;;;-146.27;77.48;81661.09;5061920;28;20107;-72
2023/08/01 10:35:52;;;;;;;7.95;1.95;;;;;;;-146.27;77.67;81713.31;5064105;28;20051;-72
2023/08/01 10:38:17;;;;;;;10.07;2.10;;;;;;;-146.27;78.48;81711.28;5056041;28;20516;-72
2023/08/01 10:40:43;;;;;;;8.95;2.28;;;;;;;-146.27;79.00;81715.31;5071189;28;20021;-73
2023/08/01 10:43:22;;;;;;;10.25;2.17;;;;;;;-146.27;79.01;81709.28;5071555;28;20037;-75
2023/08/01 10:45:47;;;;;;;10.27;1.60;;;;;;;-146.27;79.37;81679.16;5072224;28;20020;-72
2023/08/01 10:48:13;;;;;;;9.50;2.95;;;;;;;-146.27;78.27;81681.16;5073157;28;20047;-73
2023/08/01 10:50:39;;;;;;;8.80;2.05;;;;;;;-146.27;77.57;81679.16;5072979;28;20028;-73
2023/08/01 10:53:09;;;;;;;10.27;3.17;;;;;;;-146.27;78.95;81663.09;5067209;28;20043;-73
2023/08/01 10:55:43;;;;;;;8.18;1.77;;;;;;;-146.27;77.71;81578.75;5060871;28;20020;-73
2023/08/01 10:58:09;;;;;;;11.68;3.15;;;;;;;-146.27;77.67;81624.94;5073027;28;20052;-73
2023/08/01 11:00:34;;;;;;;14.07;2.53;;;;;;;-146.27;78.39;81655.06;5072872;28;20055;-73
2023/08/01 11:02:59;;;;;;;12.35;2.88;;;;;;;-146.27;79.10;81657.06;5069943;28;20469;-74